Time;durP1;ratioP1;P1;durP2;ratioP2;P2;SDS_P1;SDS_P2;PMS_P1;PMS_P2;Temp;Humidity;BMP_temperature;BMP_pressure;BME280_temperature;BME280_humidity;BME280_pressure;Samples;Min_cycle;Max_cycle;Signal;HPM_P1;HPM_P2
2022/12/16 00:01:20;;;;;;;436.13;404.70;;;;;;;;;;6249338;28;20045;-82
2022/12/16 00:04:22;;;;;;;434.58;404.35;;;;;;;;;;6239669;28;20075;-80
2022/12/16 00:07:23;;;;;;;428.90;398.50;;;;;;;;;;6257167;28;20150;-79
2022/12/16 00:10:25;;;;;;;452.23;420.98;;;;;;;;;;6256669;28;20139;-80
2022/12/16 00:13:29;;;;;;;427.65;396.85;;;;;;;;;;6276903;28;20523;-80
2022/12/16 00:16:32;;;;;;;440.58;409.65;;;;;;;;;;6274368;28;20183;-80
2022/12/16 00:19:34;;;;;;;473.83;439.73;;;;;;;;;;6255785;28;20132;-80
2022/12/16 00:22:35;;;;;;;449.35;418.40;;;;;;;;;;6265352;28;20118;-80
2022/12/16 00:25:37;;;;;;;462.85;432.13;;;;;;;;;;6259083;28;20121;-81
2022/12/16 00:28:39;;;;;;;469.48;438.77;;;;;;;;;;6235358;28;20049;-81
2022/12/16 00:31:41;;;;;;;441.98;411.95;;;;;;;;;;6232083;28;20057;-82
2022/12/16 00:34:43;;;;;;;453.13;422.45;;;;;;;;;;6241525;28;20032;-81
2022/12/16 00:37:48;;;;;;;434.05;404.88;;;;;;;;;;6266134;28;20087;-80
2022/12/16 00:40:52;;;;;;;454.15;424.00;;;;;;;;;;6262025;28;20053;-82
2022/12/16 00:43:54;;;;;;;464.38;433.85;;;;;;;;;;6239962;28;20084;-82
2022/12/16 00:46:56;;;;;;;462.50;431.60;;;;;;;;;;6226782;28;20041;-81
2022/12/16 00:49:57;;;;;;;480.45;446.42;;;;;;;;;;6250314;28;20061;-82
2022/12/16 00:52:59;;;;;;;494.77;463.63;;;;;;;;;;6229190;28;20056;-81
2022/12/16 00:56:10;;;;;;;519.70;481.98;;;;;;;;;;6244741;28;20041;-80
2022/12/16 00:59:12;;;;;;;519.05;482.98;;;;;;;;;;6227684;28;20037;-82
2022/12/16 01:02:13;;;;;;;525.70;492.92;;;;;;;;;;6246639;28;20132;-81
2022/12/16 01:05:19;;;;;;;506.63;476.88;;;;;;;;;;6233136;28;20099;-82
2022/12/16 01:08:21;;;;;;;528.35;496.40;;;;;;;;;;6241375;28;20044;-82
2022/12/16 01:11:23;;;;;;;529.30;497.50;;;;;;;;;;6252079;28;20041;-80
2022/12/16 01:14:25;;;;;;;506.52;476.08;;;;;;;;;;6247995;28;20038;-81
2022/12/16 01:17:27;;;;;;;531.38;496.10;;;;;;;;;;6227673;28;20044;-80
2022/12/16 01:20:31;;;;;;;531.35;495.75;;;;;;;;;;6251305;28;20048;-81
2022/12/16 01:23:33;;;;;;;541.33;504.88;;;;;;;;;;6260025;28;20060;-80
2022/12/16 01:26:36;;;;;;;;;;;;;;;;;;6231934;28;20059;-81
2022/12/16 01:29:37;;;;;;;513.47;483.02;;;;;;;;;;6228035;28;19931;-81
2022/12/16 01:32:39;;;;;;;523.33;492.60;;;;;;;;;;6229507;28;20527;-81
2022/12/16 01:35:42;;;;;;;553.70;509.45;;;;;;;;;;6261308;28;20058;-79
2022/12/16 01:38:56;;;;;;;530.95;495.75;;;;;;;;;;6244880;28;20531;-81
2022/12/16 01:41:58;;;;;;;555.70;521.88;;;;;;;;;;6245380;28;20116;-81
2022/12/16 01:45:28;;;;;;;554.75;524.95;;;;;;;;;;6224562;28;20126;-80
2022/12/16 01:48:33;;;;;;;542.15;513.53;;;;;;;;;;6235702;28;20060;-81
2022/12/16 01:51:38;;;;;;;573.10;538.67;;;;;;;;;;6227134;28;20045;-81
2022/12/16 01:54:48;;;;;;;584.50;540.85;;;;;;;;;;6244174;28;20071;-80
2022/12/16 01:57:57;;;;;;;564.35;534.63;;;;;;;;;;6227263;28;20053;-80
2022/12/16 02:01:01;;;;;;;577.08;546.83;;;;;;;;;;6244938;28;20045;-80
2022/12/16 02:04:03;;;;;;;587.42;557.60;;;;;;;;;;6223845;28;20524;-81
2022/12/16 02:07:05;;;;;;;566.20;532.22;;;;;;;;;;6227159;28;20060;-81
2022/12/16 02:10:07;;;;;;;556.42;527.58;;;;;;;;;;6244753;28;20059;-80
2022/12/16 02:13:11;;;;;;;588.03;558.17;;;;;;;;;;6239663;28;20109;-80
2022/12/16 02:16:22;;;;;;;577.15;546.90;;;;;;;;;;6224077;28;20111;-82
2022/12/16 02:19:45;;;;;;;573.55;544.65;;;;;;;;;;6248299;28;20107;-81
2022/12/16 02:23:03;;;;;;;565.47;536.70;;;;;;;;;;6225873;28;20505;-80
2022/12/16 02:26:38;;;;;;;575.42;546.45;;;;;;;;;;6239513;28;20178;-80
2022/12/16 02:30:18;;;;;;;606.22;568.13;;;;;;;;;;6238303;28;20110;-81
2022/12/16 02:33:32;;;;;;;583.63;554.13;;;;;;;;;;6227974;28;20124;-81
2022/12/16 02:36:41;;;;;;;585.85;547.15;;;;;;;;;;6239354;28;20053;-80
2022/12/16 02:39:51;;;;;;;622.63;572.47;;;;;;;;;;6223636;28;20052;-81
2022/12/16 02:42:59;;;;;;;583.70;554.58;;;;;;;;;;6236418;28;20049;-81
2022/12/16 02:46:03;;;;;;;589.30;550.47;;;;;;;;;;6220230;28;20045;-80
2022/12/16 02:49:31;;;;;;;588.58;549.30;;;;;;;;;;6221500;28;20232;-80
2022/12/16 02:52:34;;;;;;;568.30;538.70;;;;;;;;;;6201259;28;20041;-80
2022/12/16 02:56:14;;;;;;;570.23;541.73;;;;;;;;;;6241661;28;20045;-80
2022/12/16 02:59:40;;;;;;;11.40;5.22;;;;;;;;;;6257218;28;20152;-79
2022/12/16 03:02:56;;;;;;;6.85;4.63;;;;;;;;;;6257205;28;20064;-79
2022/12/16 03:06:00;;;;;;;4.22;3.50;;;;;;;;;;6259068;28;20041;-81
2022/12/16 03:09:07;;;;;;;10.48;3.90;;;;;;;;;;6241873;28;20105;-81
2022/12/16 03:12:13;;;;;;;3.95;3.03;;;;;;;;;;6228812;28;20492;-79
2022/12/16 03:15:18;;;;;;;5.32;2.63;;;;;;;;;;6227185;28;20150;-81
2022/12/16 03:18:20;;;;;;;7.22;4.57;;;;;;;;;;6230600;28;20148;-80
2022/12/16 03:21:29;;;;;;;5.97;2.92;;;;;;;;;;6232054;28;20049;-80
2022/12/16 03:24:31;;;;;;;5.53;4.90;;;;;;;;;;6262565;28;20045;-78
2022/12/16 03:28:00;;;;;;;12.23;4.13;;;;;;;;;;6214891;28;20128;-82
2022/12/16 03:31:30;;;;;;;8.13;4.78;;;;;;;;;;6231967;28;20520;-80
2022/12/16 03:34:49;;;;;;;4.43;4.03;;;;;;;;;;6247948;28;20124;-81
2022/12/16 03:37:55;;;;;;;6.30;5.68;;;;;;;;;;6241590;28;20049;-81
2022/12/16 03:40:59;;;;;;;3.47;3.20;;;;;;;;;;6241484;28;20075;-80
2022/12/16 03:44:01;;;;;;;8.02;7.22;;;;;;;;;;6233039;28;20454;-81
2022/12/16 03:47:04;;;;;;;3.80;3.58;;;;;;;;;;6244021;28;20118;-80
2022/12/16 03:50:06;;;;;;;;;;;;;;;;;;6244211;28;20041;-80
2022/12/16 03:53:08;;;;;;;7.18;6.53;;;;;;;;;;6212050;28;19920;-81
2022/12/16 03:56:10;;;;;;;4.35;4.15;;;;;;;;;;6241718;28;20041;-81
2022/12/16 03:59:12;;;;;;;4.05;3.47;;;;;;;;;;6243432;28;20431;-81
2022/12/16 04:02:14;;;;;;;7.10;3.50;;;;;;;;;;6246753;28;20088;-80
2022/12/16 04:05:17;;;;;;;16.90;10.30;;;;;;;;;;6226880;28;20548;-80
2022/12/16 04:08:19;;;;;;;4.13;3.60;;;;;;;;;;6244186;28;20125;-80
2022/12/16 04:24:46;;;;;;;97.53;89.22;;;;;;;;;;6203796;28;20599;-79
